createdAt,value
2022-12-25T00:01:19.351Z,14.61
2022-12-25T00:03:46.472Z,14.60
2022-12-25T00:06:13.339Z,14.57
2022-12-25T00:08:40.385Z,14.56
2022-12-25T00:11:10.231Z,14.55
2022-12-25T00:13:37.133Z,14.54
2022-12-25T00:16:24.874Z,14.54
2022-12-25T00:18:52.498Z,14.53
2022-12-25T00:21:20.347Z,14.53
2022-12-25T00:23:48.973Z,14.53
2022-12-25T00:26:17.472Z,14.53
2022-12-25T00:28:44.706Z,14.53
2022-12-25T00:31:16.860Z,14.52
2022-12-25T00:33:45.097Z,14.51
2022-12-25T00:36:12.785Z,14.53
2022-12-25T00:38:40.339Z,14.54
2022-12-25T00:41:43.816Z,14.53
2022-12-25T00:44:13.454Z,14.52
2022-12-25T00:46:41.453Z,14.52
2022-12-25T00:49:08.573Z,14.53
2022-12-25T00:51:35.191Z,14.54
2022-12-25T00:54:01.937Z,14.55
2022-12-25T00:56:28.694Z,14.55
2022-12-25T00:58:55.637Z,14.56
2022-12-25T01:01:22.376Z,14.55
2022-12-25T01:03:49.020Z,14.57
2022-12-25T01:06:15.533Z,14.59
2022-12-25T01:09:01.452Z,14.61
2022-12-25T01:11:28.634Z,14.61
2022-12-25T01:13:55.235Z,14.62
2022-12-25T01:16:21.908Z,14.64
2022-12-25T01:18:48.585Z,14.64
2022-12-25T01:21:16.900Z,14.64
2022-12-25T01:23:44.573Z,14.63
2022-12-25T01:26:14.147Z,14.61
2022-12-25T01:28:41.606Z,14.59
2022-12-25T01:31:13.552Z,14.58
2022-12-25T01:33:41.240Z,14.55
2022-12-25T01:36:19.465Z,14.54
2022-12-25T01:38:47.051Z,14.55
2022-12-25T01:41:14.656Z,14.56
2022-12-25T01:44:02.874Z,14.55
2022-12-25T01:46:30.165Z,14.55
2022-12-25T01:48:59.507Z,14.55
2022-12-25T01:51:30.817Z,14.51
2022-12-25T01:54:00.473Z,14.51
2022-12-25T01:56:27.334Z,14.52
2022-12-25T01:58:54.846Z,14.52
2022-12-25T02:01:21.491Z,14.54
2022-12-25T02:03:48.198Z,14.55
2022-12-25T02:06:14.774Z,14.53
2022-12-25T02:08:41.622Z,14.49
2022-12-25T02:11:32.043Z,14.47
2022-12-25T02:13:58.547Z,14.44
2022-12-25T02:16:30.198Z,14.41
2022-12-25T02:19:03.388Z,14.40
2022-12-25T02:21:29.882Z,14.39
2022-12-25T02:24:02.837Z,14.37
2022-12-25T02:26:41.488Z,14.36
2022-12-25T02:29:20.927Z,14.33
2022-12-25T02:31:59.381Z,14.29
2022-12-25T02:34:33.411Z,14.27
2022-12-25T02:37:04.738Z,14.26
2022-12-25T02:39:59.242Z,14.24
2022-12-25T02:42:53.994Z,14.21
2022-12-25T02:45:59.208Z,14.19
2022-12-25T02:48:47.050Z,14.18
2022-12-25T02:51:33.801Z,14.18
2022-12-25T02:54:21.882Z,14.18
2022-12-25T02:57:08.295Z,14.20
2022-12-25T02:59:56.917Z,14.20
2022-12-25T03:02:43.030Z,14.18
2022-12-25T03:05:30.623Z,14.16
2022-12-25T03:07:59.494Z,14.13
2022-12-25T03:10:44.663Z,14.11
2022-12-25T03:13:17.578Z,14.08
2022-12-25T03:16:03.689Z,14.07
2022-12-25T03:18:31.550Z,14.02
2022-12-25T03:21:17.420Z,13.97
2022-12-25T03:24:06.531Z,13.96
2022-12-25T03:26:52.126Z,13.94
2022-12-25T03:29:36.962Z,13.93
2022-12-25T03:32:11.553Z,13.88
2022-12-25T03:35:24.239Z,13.85
2022-12-25T03:38:30.881Z,13.80
2022-12-25T03:41:40.974Z,13.78
2022-12-25T03:44:25.816Z,13.75
2022-12-25T03:47:20.046Z,13.74
2022-12-25T03:50:35.946Z,13.74
2022-12-25T03:53:23.399Z,13.75
2022-12-25T03:56:10.136Z,13.77
2022-12-25T03:58:55.300Z,13.78
2022-12-25T04:01:40.321Z,13.81
2022-12-25T04:04:25.319Z,13.85
2022-12-25T04:07:10.209Z,13.85
2022-12-25T04:09:55.273Z,13.83
2022-12-25T04:12:40.128Z,13.82
2022-12-25T04:15:25.497Z,13.77
2022-12-25T04:18:11.530Z,13.74
2022-12-25T04:20:56.572Z,13.72
2022-12-25T04:23:41.355Z,13.72
2022-12-25T04:26:26.295Z,13.73
2022-12-25T04:29:11.105Z,13.75
2022-12-25T04:31:56.139Z,13.77
2022-12-25T04:34:40.982Z,13.80
2022-12-25T04:37:07.547Z,13.83
2022-12-25T04:39:34.035Z,13.85
2022-12-25T04:42:01.105Z,13.87
2022-12-25T04:44:27.761Z,13.89
2022-12-25T04:46:54.313Z,13.89
2022-12-25T04:49:20.996Z,13.92
2022-12-25T04:51:47.613Z,13.95
2022-12-25T04:54:14.136Z,13.98
2022-12-25T04:56:45.591Z,13.99
2022-12-25T04:59:12.567Z,14.00
2022-12-25T05:01:41.186Z,14.01
2022-12-25T05:04:07.767Z,14.05
2022-12-25T05:06:34.323Z,14.06
2022-12-25T05:09:00.827Z,14.08
2022-12-25T05:11:27.670Z,14.09
2022-12-25T05:13:54.262Z,14.09
2022-12-25T05:16:21.136Z,14.09
2022-12-25T05:18:51.964Z,14.09
2022-12-25T05:21:18.918Z,14.10
2022-12-25T05:23:51.327Z,14.11
2022-12-25T05:26:20.740Z,14.12
2022-12-25T05:28:47.849Z,14.14
2022-12-25T05:31:14.525Z,14.15
2022-12-25T05:33:41.082Z,14.14
2022-12-25T05:36:09.775Z,14.12
2022-12-25T05:38:36.356Z,14.09
2022-12-25T05:41:03.477Z,14.08
2022-12-25T05:43:30.780Z,14.06
2022-12-25T05:45:57.319Z,14.05
2022-12-25T05:48:24.010Z,14.03
2022-12-25T05:50:50.540Z,13.98
2022-12-25T05:53:17.789Z,13.98
2022-12-25T05:55:44.495Z,13.99
2022-12-25T05:58:12.567Z,13.97
2022-12-25T06:00:39.634Z,13.98
2022-12-25T06:03:06.276Z,13.96
2022-12-25T06:05:32.916Z,13.95
2022-12-25T06:07:59.459Z,13.95
2022-12-25T06:10:26.012Z,13.94
2022-12-25T06:12:52.603Z,13.93
2022-12-25T06:15:19.237Z,13.91
2022-12-25T06:17:45.797Z,13.88
2022-12-25T06:20:12.333Z,13.89
2022-12-25T06:22:38.892Z,13.88
2022-12-25T06:25:05.907Z,13.88
2022-12-25T06:27:32.425Z,13.89
2022-12-25T06:29:58.977Z,13.91
2022-12-25T06:32:26.952Z,13.93
2022-12-25T06:34:53.499Z,13.93
2022-12-25T06:37:20.054Z,13.93
2022-12-25T06:39:47.497Z,13.93
2022-12-25T06:42:14.069Z,13.92
2022-12-25T06:44:40.558Z,13.91
2022-12-25T06:47:07.110Z,13.87
2022-12-25T06:49:33.703Z,13.79
2022-12-25T06:52:00.225Z,13.75
2022-12-25T06:54:27.193Z,13.73
2022-12-25T06:56:53.726Z,13.70
2022-12-25T06:59:20.367Z,13.66
2022-12-25T07:01:48.542Z,13.58
2022-12-25T07:04:42.652Z,13.53
2022-12-25T07:07:09.850Z,13.51
2022-12-25T07:09:38.800Z,13.47
2022-12-25T07:12:06.536Z,13.46
2022-12-25T07:14:33.058Z,13.48
2022-12-25T07:16:59.651Z,13.50
2022-12-25T07:19:26.424Z,13.54
2022-12-25T07:21:52.944Z,13.57
2022-12-25T07:24:20.605Z,13.62
2022-12-25T07:26:47.208Z,13.64
2022-12-25T07:29:13.808Z,13.65
2022-12-25T07:31:40.352Z,13.66
2022-12-25T07:34:06.839Z,13.67
2022-12-25T07:36:33.426Z,13.68
2022-12-25T07:38:59.932Z,13.73
2022-12-25T07:41:27.267Z,13.77
2022-12-25T07:43:54.207Z,13.82
2022-12-25T07:46:22.776Z,13.88
2022-12-25T07:48:49.912Z,13.90
2022-12-25T07:51:16.561Z,13.88
2022-12-25T07:53:43.266Z,13.86
2022-12-25T07:56:16.971Z,13.81
2022-12-25T07:58:43.919Z,13.78
2022-12-25T08:01:12.557Z,13.78
2022-12-25T08:03:39.386Z,13.76
2022-12-25T08:06:08.137Z,13.76
2022-12-25T08:08:35.388Z,13.77
2022-12-25T08:11:02.274Z,13.78
2022-12-25T08:13:33.107Z,13.80
2022-12-25T08:16:10.651Z,13.81
2022-12-25T08:18:38.338Z,13.84
2022-12-25T08:21:07.839Z,13.87
2022-12-25T08:23:36.200Z,13.89
2022-12-25T08:26:05.463Z,13.91
2022-12-25T08:28:32.707Z,13.95
2022-12-25T08:30:59.292Z,14.00
2022-12-25T08:33:25.919Z,14.01
2022-12-25T08:35:56.968Z,14.03
2022-12-25T08:38:23.473Z,14.04
2022-12-25T08:40:50.007Z,14.01
2022-12-25T08:43:16.483Z,13.99
2022-12-25T08:45:43.023Z,13.97
2022-12-25T08:48:09.520Z,13.99
2022-12-25T08:50:36.029Z,14.03
2022-12-25T08:53:02.541Z,14.09
2022-12-25T08:55:29.519Z,14.13
2022-12-25T08:57:56.131Z,14.16
2022-12-25T09:00:22.999Z,14.20
2022-12-25T09:02:49.626Z,14.23
2022-12-25T09:05:16.222Z,14.27
2022-12-25T09:07:42.795Z,14.33
2022-12-25T09:10:09.891Z,14.39
2022-12-25T09:12:36.462Z,14.47
2022-12-25T09:15:04.770Z,14.53
2022-12-25T09:17:32.619Z,14.56
2022-12-25T09:19:59.599Z,14.63
2022-12-25T09:22:26.208Z,14.72
2022-12-25T09:24:52.794Z,14.81
2022-12-25T09:27:19.387Z,14.87
2022-12-25T09:29:45.913Z,14.90
2022-12-25T09:32:12.430Z,14.95
2022-12-25T09:34:38.921Z,15.02
2022-12-25T09:37:05.403Z,15.06
2022-12-25T09:39:31.956Z,15.12
2022-12-25T09:42:00.694Z,15.15
2022-12-25T09:44:30.976Z,15.19
2022-12-25T09:47:04.486Z,15.25
2022-12-25T09:49:49.735Z,15.34
2022-12-25T09:52:24.018Z,15.38
2022-12-25T09:54:56.897Z,15.44
2022-12-25T09:57:24.693Z,15.50
2022-12-25T09:59:53.234Z,15.54
2022-12-25T10:02:56.126Z,15.58
2022-12-25T10:05:34.975Z,15.67
2022-12-25T10:08:08.356Z,15.78
2022-12-25T10:10:49.202Z,15.87
2022-12-25T10:13:37.703Z,15.95
2022-12-25T10:16:10.390Z,16.02
2022-12-25T10:18:57.924Z,16.16
2022-12-25T10:21:24.758Z,16.35
2022-12-25T10:24:16.324Z,16.54
2022-12-25T10:26:43.015Z,16.68
2022-12-25T10:29:15.331Z,16.79
2022-12-25T10:31:45.392Z,16.86
2022-12-25T10:34:13.276Z,16.90
2022-12-25T10:36:40.130Z,16.88
2022-12-25T10:39:06.646Z,16.84
2022-12-25T10:42:10.871Z,16.80
2022-12-25T10:44:37.485Z,16.77
2022-12-25T10:47:04.616Z,16.74
2022-12-25T10:49:38.765Z,16.70
2022-12-25T10:52:20.127Z,16.69
2022-12-25T10:54:46.790Z,16.67
2022-12-25T10:57:19.505Z,16.64
2022-12-25T10:59:50.963Z,16.63
2022-12-25T11:02:20.632Z,16.61
2022-12-25T11:04:47.995Z,16.62
2022-12-25T11:07:17.453Z,16.63
2022-12-25T11:09:59.322Z,16.67
2022-12-25T11:12:37.646Z,16.68
2022-12-25T11:15:26.532Z,16.70
2022-12-25T11:17:53.016Z,16.72
2022-12-25T11:20:20.169Z,16.73
2022-12-25T11:22:48.199Z,16.72
2022-12-25T11:25:22.601Z,16.74
2022-12-25T11:28:05.503Z,16.75
2022-12-25T11:30:33.627Z,16.74
2022-12-25T11:33:07.012Z,16.74
2022-12-25T11:35:47.925Z,16.72
2022-12-25T11:38:14.527Z,16.67
2022-12-25T11:40:49.673Z,16.64
2022-12-25T11:43:16.138Z,16.62
2022-12-25T11:45:48.316Z,16.61
2022-12-25T11:48:19.768Z,16.57
2022-12-25T11:50:58.185Z,16.54
2022-12-25T11:53:41.165Z,16.50
2022-12-25T11:56:16.433Z,16.48
2022-12-25T11:58:49.587Z,16.47
2022-12-25T12:01:37.925Z,16.48
2022-12-25T12:04:14.217Z,16.49
2022-12-25T12:06:52.374Z,16.47
2022-12-25T12:09:25.058Z,16.46
2022-12-25T12:12:07.126Z,16.43
2022-12-25T12:15:20.385Z,16.38
2022-12-25T12:17:46.920Z,16.35
2022-12-25T12:20:28.629Z,16.36
2022-12-25T12:22:55.455Z,16.32
2022-12-25T12:25:22.718Z,16.29
2022-12-25T12:28:20.723Z,16.26
2022-12-25T12:30:57.787Z,16.24
2022-12-25T12:33:28.251Z,16.24
2022-12-25T12:35:54.759Z,16.24
2022-12-25T12:38:22.397Z,16.21
2022-12-25T12:40:58.408Z,16.20
2022-12-25T12:43:39.701Z,16.18
2022-12-25T12:46:16.152Z,16.18
2022-12-25T12:48:45.547Z,16.18
2022-12-25T12:51:15.063Z,16.17
2022-12-25T12:53:42.856Z,16.15
2022-12-25T12:56:19.727Z,16.15
2022-12-25T12:58:50.872Z,16.12
2022-12-25T13:01:20.201Z,16.11
2022-12-25T13:04:05.042Z,16.11
2022-12-25T13:06:40.750Z,16.10
2022-12-25T13:09:24.753Z,16.07
2022-12-25T13:11:51.299Z,16.06
2022-12-25T13:14:23.213Z,16.07
2022-12-25T13:16:52.405Z,16.07
2022-12-25T13:19:27.902Z,16.09
2022-12-25T13:22:24.846Z,16.09
2022-12-25T13:24:56.585Z,16.07
2022-12-25T13:27:23.927Z,16.05
2022-12-25T13:29:50.621Z,16.04
2022-12-25T13:32:32.807Z,16.05
2022-12-25T13:35:00.111Z,16.06
2022-12-25T13:37:28.689Z,16.05
2022-12-25T13:40:00.328Z,16.06
2022-12-25T13:42:36.374Z,16.06
2022-12-25T13:45:21.430Z,16.06
2022-12-25T13:47:54.691Z,16.07
2022-12-25T13:50:33.952Z,16.03
2022-12-25T13:53:15.807Z,15.95
2022-12-25T13:55:42.220Z,15.84
2022-12-25T13:58:22.991Z,15.76
2022-12-25T14:00:54.223Z,15.69
2022-12-25T14:03:36.314Z,15.59
2022-12-25T14:06:14.717Z,15.53
2022-12-25T14:08:41.289Z,15.49
2022-12-25T14:11:08.553Z,15.44
2022-12-25T14:13:40.700Z,15.42
2022-12-25T14:16:08.003Z,15.36
2022-12-25T14:18:35.717Z,15.37
2022-12-25T14:21:05.174Z,15.38
2022-12-25T14:23:47.104Z,15.39
2022-12-25T14:26:17.016Z,15.37
2022-12-25T14:28:47.885Z,15.39
2022-12-25T14:31:14.547Z,15.35
2022-12-25T14:33:41.905Z,15.34
2022-12-25T14:36:11.869Z,15.34
2022-12-25T14:38:40.977Z,15.36
2022-12-25T14:41:37.743Z,15.36
2022-12-25T14:44:32.224Z,15.33
2022-12-25T14:47:11.009Z,15.35
2022-12-25T14:49:38.260Z,15.36
2022-12-25T14:52:11.777Z,15.38
2022-12-25T14:54:38.315Z,15.41
2022-12-25T14:57:04.953Z,15.44
2022-12-25T14:59:31.463Z,15.46
2022-12-25T15:02:01.017Z,15.45
2022-12-25T15:04:28.527Z,15.44
2022-12-25T15:06:55.972Z,15.42
2022-12-25T15:09:23.257Z,15.41
2022-12-25T15:11:51.244Z,15.43
2022-12-25T15:14:17.846Z,15.43
2022-12-25T15:16:46.773Z,15.46
2022-12-25T15:19:21.924Z,15.47
2022-12-25T15:21:51.926Z,15.46
2022-12-25T15:24:18.507Z,15.46
2022-12-25T15:26:45.027Z,15.42
2022-12-25T15:29:11.631Z,15.41
2022-12-25T15:31:39.055Z,15.45
2022-12-25T15:34:07.702Z,15.49
2022-12-25T15:36:34.288Z,15.50
2022-12-25T15:39:01.025Z,15.52
2022-12-25T15:41:50.997Z,15.55
2022-12-25T15:44:18.085Z,15.56
2022-12-25T15:46:45.943Z,15.57
2022-12-25T15:49:13.526Z,15.58
2022-12-25T15:51:40.944Z,15.57
2022-12-25T15:54:07.799Z,15.58
2022-12-25T15:56:46.319Z,15.60
2022-12-25T15:59:13.572Z,15.60
2022-12-25T16:01:44.906Z,15.61
2022-12-25T16:04:11.612Z,15.60
2022-12-25T16:06:38.355Z,15.62
2022-12-25T16:09:05.695Z,15.62
2022-12-25T16:11:32.359Z,15.62
2022-12-25T16:13:58.922Z,15.62
2022-12-25T16:16:25.901Z,15.59
2022-12-25T16:18:52.675Z,15.53
2022-12-25T16:21:20.030Z,15.51
2022-12-25T16:23:47.172Z,15.46
2022-12-25T16:26:15.086Z,15.40
2022-12-25T16:28:41.626Z,15.32
2022-12-25T16:31:08.187Z,15.29
2022-12-25T16:33:34.771Z,15.27
2022-12-25T16:36:01.247Z,15.26
2022-12-25T16:38:27.888Z,15.25
2022-12-25T16:40:56.800Z,15.20
2022-12-25T16:43:24.294Z,15.17
2022-12-25T16:45:51.414Z,15.10
2022-12-25T16:48:18.083Z,15.06
2022-12-25T16:50:44.621Z,15.04
2022-12-25T16:53:12.469Z,15.03
2022-12-25T16:55:39.320Z,15.04
2022-12-25T16:58:06.612Z,15.04
2022-12-25T17:00:33.368Z,15.03
2022-12-25T17:03:01.097Z,15.00
2022-12-25T17:05:27.812Z,14.99
2022-12-25T17:07:54.340Z,15.00
2022-12-25T17:10:21.435Z,14.99
2022-12-25T17:12:48.127Z,14.98
2022-12-25T17:15:14.892Z,14.97
2022-12-25T17:17:41.832Z,14.95
2022-12-25T17:20:08.753Z,14.92
2022-12-25T17:22:35.340Z,14.89
2022-12-25T17:25:02.507Z,14.87
2022-12-25T17:27:29.026Z,14.83
2022-12-25T17:29:55.700Z,14.82
2022-12-25T17:32:22.407Z,14.84
2022-12-25T17:34:49.007Z,14.80
2022-12-25T17:37:15.537Z,14.76
2022-12-25T17:39:42.084Z,14.73
2022-12-25T17:42:08.646Z,14.73
2022-12-25T17:44:35.156Z,14.72
2022-12-25T17:47:01.790Z,14.68
2022-12-25T17:49:28.397Z,14.65
2022-12-25T17:51:55.013Z,14.63
2022-12-25T17:54:21.568Z,14.63
2022-12-25T17:56:48.642Z,14.62
2022-12-25T17:59:18.784Z,14.61
2022-12-25T18:01:46.080Z,14.57
2022-12-25T18:04:12.846Z,14.55
2022-12-25T18:06:39.472Z,14.54
2022-12-25T18:09:06.986Z,14.53
2022-12-25T18:11:33.543Z,14.52
2022-12-25T18:14:04.591Z,14.46
2022-12-25T18:16:35.123Z,14.43
2022-12-25T18:19:02.634Z,14.44
2022-12-25T18:21:30.043Z,14.41
2022-12-25T18:23:56.590Z,14.40
2022-12-25T18:26:23.273Z,14.38
2022-12-25T18:28:50.343Z,14.37
2022-12-25T18:31:25.279Z,14.36
2022-12-25T18:33:52.632Z,14.38
2022-12-25T18:36:23.303Z,14.38
2022-12-25T18:38:51.217Z,14.37
2022-12-25T18:41:17.957Z,14.35
2022-12-25T18:43:53.806Z,14.34
2022-12-25T18:46:24.277Z,14.32
2022-12-25T18:48:52.125Z,14.30
2022-12-25T18:51:18.869Z,14.29
2022-12-25T18:53:45.573Z,14.29
2022-12-25T18:56:15.248Z,14.29
2022-12-25T18:58:41.932Z,14.31
2022-12-25T19:01:13.325Z,14.32
2022-12-25T19:03:40.026Z,14.28
2022-12-25T19:06:06.832Z,14.24
2022-12-25T19:08:33.459Z,14.17
2022-12-25T19:10:59.981Z,14.14
2022-12-25T19:13:26.527Z,14.14
2022-12-25T19:15:58.092Z,14.14
2022-12-25T19:18:24.599Z,14.15
2022-12-25T19:20:53.202Z,14.18
2022-12-25T19:23:19.743Z,14.19
2022-12-25T19:25:46.264Z,14.19
2022-12-25T19:28:12.785Z,14.20
2022-12-25T19:30:39.356Z,14.21
2022-12-25T19:33:07.412Z,14.23
2022-12-25T19:35:40.363Z,14.23
2022-12-25T19:38:07.007Z,14.24
2022-12-25T19:40:37.564Z,14.25
2022-12-25T19:43:04.171Z,14.23
2022-12-25T19:45:30.804Z,14.24
2022-12-25T19:47:58.285Z,14.25
2022-12-25T19:50:28.694Z,14.23
2022-12-25T19:52:55.670Z,14.21
2022-12-25T19:55:22.412Z,14.20
2022-12-25T19:57:49.542Z,14.20
2022-12-25T20:00:16.556Z,14.21
2022-12-25T20:02:43.239Z,14.20
2022-12-25T20:05:09.935Z,14.20
2022-12-25T20:07:36.490Z,14.22
2022-12-25T20:10:02.967Z,14.23
2022-12-25T20:12:29.486Z,14.24
2022-12-25T20:14:56.167Z,14.26
2022-12-25T20:17:22.749Z,14.24
2022-12-25T20:19:49.278Z,14.21
2022-12-25T20:22:15.868Z,14.20
2022-12-25T20:24:42.654Z,14.22
2022-12-25T20:27:09.336Z,14.23
2022-12-25T20:29:36.084Z,14.21
2022-12-25T20:32:02.769Z,14.20
2022-12-25T20:34:29.466Z,14.21
2022-12-25T20:36:56.240Z,14.22
2022-12-25T20:39:22.776Z,14.24
2022-12-25T20:41:49.618Z,14.25
2022-12-25T20:44:16.183Z,14.25
2022-12-25T20:46:43.184Z,14.24
2022-12-25T20:49:10.008Z,14.24
2022-12-25T20:51:38.116Z,14.24
2022-12-25T20:54:09.591Z,14.26
2022-12-25T20:56:36.907Z,14.28
2022-12-25T20:59:03.493Z,14.26
2022-12-25T21:01:30.995Z,14.24
2022-12-25T21:03:58.304Z,14.23
2022-12-25T21:06:24.988Z,14.22
2022-12-25T21:08:51.599Z,14.20
2022-12-25T21:11:18.575Z,14.20
2022-12-25T21:13:46.132Z,14.21
2022-12-25T21:16:18.816Z,14.22
2022-12-25T21:18:46.341Z,14.20
2022-12-25T21:21:12.891Z,14.19
2022-12-25T21:23:39.946Z,14.17
2022-12-25T21:26:19.058Z,14.17
2022-12-25T21:28:47.342Z,14.17
2022-12-25T21:31:14.836Z,14.16
2022-12-25T21:33:54.422Z,14.14
2022-12-25T21:36:24.036Z,14.15
2022-12-25T21:39:04.075Z,14.15
2022-12-25T21:41:32.175Z,14.11
2022-12-25T21:43:58.924Z,14.10
2022-12-25T21:46:26.267Z,14.09
2022-12-25T21:48:53.323Z,14.10
2022-12-25T21:51:39.716Z,14.10
2022-12-25T21:54:06.974Z,14.11
2022-12-25T21:56:43.175Z,14.11
2022-12-25T21:59:11.872Z,14.09
2022-12-25T22:01:38.571Z,14.11
2022-12-25T22:04:07.277Z,14.12
2022-12-25T22:06:52.697Z,14.15
2022-12-25T22:09:19.293Z,14.16
2022-12-25T22:12:04.432Z,14.17
2022-12-25T22:14:54.226Z,14.17
2022-12-25T22:17:46.101Z,14.14
2022-12-25T22:20:26.317Z,14.10
2022-12-25T22:22:53.655Z,14.07
2022-12-25T22:25:21.144Z,14.06
2022-12-25T22:27:48.850Z,14.04
2022-12-25T22:30:23.701Z,14.06
2022-12-25T22:32:51.926Z,14.05
2022-12-25T22:35:19.009Z,14.06
2022-12-25T22:37:45.683Z,14.04
2022-12-25T22:40:15.279Z,14.01
2022-12-25T22:42:42.551Z,14.00
2022-12-25T22:45:10.301Z,13.98
2022-12-25T22:47:36.845Z,13.99
2022-12-25T22:50:04.134Z,13.98
2022-12-25T22:52:30.727Z,13.98
2022-12-25T22:54:57.218Z,13.97
2022-12-25T22:57:23.901Z,13.92
2022-12-25T22:59:53.003Z,13.92
2022-12-25T23:02:19.950Z,13.90
2022-12-25T23:04:46.850Z,13.89
2022-12-25T23:07:14.664Z,13.88
2022-12-25T23:09:42.030Z,13.89
2022-12-25T23:12:28.993Z,13.91
2022-12-25T23:14:56.483Z,13.91
2022-12-25T23:17:41.658Z,13.90
2022-12-25T23:20:27.886Z,13.92
2022-12-25T23:23:12.767Z,13.92
2022-12-25T23:25:57.564Z,13.88
2022-12-25T23:28:42.854Z,13.83
2022-12-25T23:31:09.578Z,13.79
2022-12-25T23:33:36.192Z,13.79
2022-12-25T23:36:02.730Z,13.81
2022-12-25T23:38:30.505Z,13.80
2022-12-25T23:40:57.223Z,13.74
2022-12-25T23:43:23.742Z,13.72
2022-12-25T23:45:50.259Z,13.71
2022-12-25T23:48:16.758Z,13.74
2022-12-25T23:50:43.406Z,13.77
2022-12-25T23:53:11.013Z,13.81
2022-12-25T23:55:37.594Z,13.86
2022-12-25T23:58:04.484Z,13.89
